Accueil
METAR-TAF:

METAR-TAF

Aéroports :

Aéroport international de Ko Samui

Ko Samui, Thaïlande

latitude: 09-32-52N, longitude: 100-03-44E, altitude: 20 m

Observation

Le bulletin a été fait il y a 13 minutes, à 05:30 UTC
Vent 8 kt de nord-ouest, variant entre ouest et nord
Température 32°C
Humidité 63%
Pression 1010 hPa
Visibilité 10 km ou plus
Quelques nuages à une hauteur de 2000 ft

METAR: VTSM 260530Z 31008KT 270V360 9999 FEW020 32/24 Q1010 NOSIG

Heure: 12:43 (05:43 UTC)

Prévision

Le bulletin a été fait il y a 6 heures et 43 minutes, à 23:00 UTC
Prévision valable du 26 à 00 UTC au 26 à 24 UTC
Vent 8 kt de ouest/nord-ouest
Visibilité 10 km ou plus
Quelques nuages à une hauteur de 2000 ft

TAF: VTSM 252300Z 2600/2624 30008KT 9999 FEW020

Observations et prévisions météorologiques de plus de 4000 aéroports (messages METAR et TAF).

Les stations disponibles sont représentées par des disques jaunes et rouges sur la carte.

Passer la souris dessus pour voir le nom de la station.

Cliquer dessus pour voir les observations et prévisions météorologiques.

Pour changer de carte: cliquez sur les boutons verts avec une croix noire pour zoomer, sur le bouton vert avec un tiret pour effectuer un zoom arrière, ou sur les flèches vertes pour les cartes adjacentes.


METAR-TAF: